Time;durP1;ratioP1;P1;durP2;ratioP2;P2;SDS_P1;SDS_P2;PMS_P1;PMS_P2;Temp;Humidity;BMP_temperature;BMP_pressure;BME280_temperature;BME280_humidity;BME280_pressure;Samples;Min_cycle;Max_cycle;Signal;HPM_P1;HPM_P2
2023/09/30 00:00:09;;;;;;;12.70;2.20;;;16.00;99.90;;;;;;5073990;28;20637;-73
2023/09/30 00:02:37;;;;;;;3.10;2.23;;;16.00;99.90;;;;;;5072306;28;20629;-73
2023/09/30 00:05:05;;;;;;;3.33;2.33;;;15.90;99.90;;;;;;5071082;28;20649;-73
2023/09/30 00:07:34;;;;;;;2.30;1.90;;;15.90;99.90;;;;;;5074632;28;20986;-73
2023/09/30 00:10:01;;;;;;;3.47;2.13;;;15.90;99.90;;;;;;5074918;28;20719;-72
2023/09/30 00:12:28;;;;;;;6.60;2.37;;;15.90;99.90;;;;;;5073293;28;20707;-72
2023/09/30 00:14:55;;;;;;;1.83;1.33;;;15.80;99.90;;;;;;5072794;28;20623;-72
2023/09/30 00:17:22;;;;;;;2.97;1.40;;;15.80;99.90;;;;;;5070811;28;20633;-72
2023/09/30 00:19:50;;;;;;;2.00;1.57;;;15.60;99.90;;;;;;5073210;28;20633;-72
2023/09/30 00:22:17;;;;;;;4.00;1.80;;;15.60;99.90;;;;;;5073049;28;20681;-72
2023/09/30 00:24:44;;;;;;;3.87;2.40;;;15.60;99.90;;;;;;5072093;28;20641;-72
2023/09/30 00:27:11;;;;;;;3.60;2.20;;;15.60;99.90;;;;;;5072720;28;20635;-72
2023/09/30 00:29:37;;;;;;;2.37;1.83;;;15.60;99.90;;;;;;5073723;28;20664;-72
2023/09/30 00:32:05;;;;;;;3.93;2.00;;;15.60;99.90;;;;;;5071393;28;20669;-71
2023/09/30 00:34:34;;;;;;;2.97;1.80;;;15.50;99.90;;;;;;5072968;28;21254;-72
2023/09/30 00:37:02;;;;;;;2.33;1.80;;;15.50;99.90;;;;;;5072993;28;21272;-72
2023/09/30 00:39:30;;;;;;;3.87;1.73;;;15.50;99.90;;;;;;5071963;28;21210;-72
2023/09/30 00:41:58;;;;;;;2.80;2.30;;;15.50;99.90;;;;;;5073094;28;20679;-72
2023/09/30 00:44:25;;;;;;;3.50;2.30;;;15.50;99.90;;;;;;5069979;28;21257;-73
2023/09/30 00:46:52;;;;;;;2.23;2.00;;;15.50;99.90;;;;;;5070750;28;20735;-73
2023/09/30 00:49:19;;;;;;;2.73;1.60;;;15.50;99.90;;;;;;5072251;28;20957;-71
2023/09/30 00:51:47;;;;;;;4.03;1.80;;;15.50;99.90;;;;;;5073294;28;20664;-73
2023/09/30 00:54:15;;;;;;;3.37;1.77;;;15.40;99.90;;;;;;5074039;28;20621;-73
2023/09/30 00:56:45;;;;;;;1.73;1.60;;;15.40;99.90;;;;;;5072652;28;20629;-73
2023/09/30 00:59:12;;;;;;;2.60;2.10;;;15.40;99.90;;;;;;5069262;28;20638;-73
2023/09/30 01:01:40;;;;;;;3.43;1.70;;;15.40;99.90;;;;;;5071262;28;20632;-73
2023/09/30 01:04:07;;;;;;;2.20;1.50;;;15.30;99.90;;;;;;5071479;28;21016;-73
2023/09/30 01:06:34;;;;;;;4.53;2.43;;;15.30;99.90;;;;;;5073048;28;20625;-72
2023/09/30 01:09:02;;;;;;;3.30;2.07;;;15.20;99.90;;;;;;5071997;28;20994;-73
2023/09/30 01:11:31;;;;;;;2.50;1.13;;;15.20;99.90;;;;;;5069220;28;20674;-73
2023/09/30 01:13:58;;;;;;;1.93;1.47;;;15.20;99.90;;;;;;5073210;28;20830;-73
2023/09/30 01:16:25;;;;;;;3.47;2.00;;;15.20;99.90;;;;;;5073690;28;20621;-72
2023/09/30 01:18:53;;;;;;;3.50;1.73;;;15.30;99.90;;;;;;5071737;28;21163;-73
2023/09/30 01:21:20;;;;;;;2.50;1.73;;;15.30;99.90;;;;;;5072733;28;20769;-73
2023/09/30 01:23:49;;;;;;;1.80;1.40;;;15.30;99.90;;;;;;5071104;28;20637;-73
2023/09/30 01:26:15;;;;;;;1.70;1.60;;;15.30;99.90;;;;;;5069715;28;20648;-73
2023/09/30 01:28:42;;;;;;;2.33;2.10;;;15.40;99.90;;;;;;5073485;28;22200;-72
2023/09/30 01:31:09;;;;;;;3.10;2.20;;;15.50;99.90;;;;;;5072968;28;20755;-72
2023/09/30 01:33:36;;;;;;;1.50;1.37;;;15.50;99.90;;;;;;5069557;28;21180;-73
2023/09/30 01:36:04;;;;;;;1.97;1.77;;;15.60;99.90;;;;;;5071189;28;20644;-73
2023/09/30 01:38:33;;;;;;;2.83;1.83;;;15.60;99.90;;;;;;5071294;28;20630;-73
2023/09/30 01:41:01;;;;;;;2.93;1.70;;;15.50;99.90;;;;;;5070414;28;20640;-72
2023/09/30 01:43:30;;;;;;;1.80;1.67;;;15.50;99.90;;;;;;5071765;28;20644;-72
2023/09/30 01:45:58;;;;;;;4.03;1.83;;;15.50;99.90;;;;;;5070437;28;20628;-72
2023/09/30 01:48:26;;;;;;;3.13;1.80;;;15.40;99.90;;;;;;5072762;28;20774;-71
2023/09/30 01:50:53;;;;;;;4.03;2.10;;;15.40;99.90;;;;;;5066290;28;22310;-72
2023/09/30 01:53:22;;;;;;;1.93;1.83;;;15.40;99.90;;;;;;5070788;28;21821;-72
2023/09/30 01:55:50;;;;;;;3.63;2.23;;;15.30;99.90;;;;;;5070619;28;20770;-72
2023/09/30 01:58:19;;;;;;;2.80;1.80;;;15.30;99.90;;;;;;5070016;28;20650;-72
2023/09/30 02:00:46;;;;;;;1.90;1.17;;;15.30;99.90;;;;;;5070141;28;20695;-73
2023/09/30 02:03:15;;;;;;;5.87;2.13;;;15.20;99.90;;;;;;5071033;28;21331;-72
2023/09/30 02:05:42;;;;;;;4.87;2.33;;;15.10;99.90;;;;;;5070729;28;21445;-72
2023/09/30 02:08:09;;;;;;;2.97;2.30;;;15.00;99.90;;;;;;5071337;28;20664;-72
2023/09/30 02:10:36;;;;;;;4.30;1.90;;;15.00;99.90;;;;;;5070025;28;20712;-72
2023/09/30 02:13:05;;;;;;;3.97;2.40;;;14.90;99.90;;;;;;5070969;28;20643;-73
2023/09/30 02:15:34;;;;;;;2.30;1.47;;;14.80;99.90;;;;;;5070887;28;20984;-71
2023/09/30 02:18:03;;;;;;;1.90;1.50;;;14.70;99.90;;;;;;5068860;28;20641;-72
2023/09/30 02:20:30;;;;;;;2.60;2.37;;;14.60;99.90;;;;;;5070291;28;20643;-72
2023/09/30 02:23:02;;;;;;;4.00;2.20;;;14.60;99.90;;;;;;5071721;28;20629;-72
2023/09/30 02:25:30;;;;;;;3.50;2.17;;;14.60;99.90;;;;;;5071154;28;20685;-72
2023/09/30 02:27:58;;;;;;;4.03;2.47;;;14.50;99.90;;;;;;5069996;28;20727;-73
2023/09/30 02:30:25;;;;;;;3.17;2.57;;;14.60;99.90;;;;;;5070484;28;20637;-73
2023/09/30 02:32:56;;;;;;;1.97;1.60;;;14.50;99.90;;;;;;5070495;28;20682;-73
2023/09/30 02:35:25;;;;;;;2.93;2.17;;;14.60;99.90;;;;;;5070469;28;20651;-73
2023/09/30 02:37:54;;;;;;;2.37;1.90;;;14.50;99.90;;;;;;5070535;28;20645;-72
2023/09/30 02:40:24;;;;;;;4.90;2.30;;;14.50;99.90;;;;;;5071302;28;21797;-73
2023/09/30 02:42:52;;;;;;;2.17;1.83;;;14.40;99.90;;;;;;5069944;28;20636;-73
2023/09/30 02:45:20;;;;;;;2.23;2.00;;;14.50;99.90;;;;;;5067766;28;20752;-73
2023/09/30 02:47:48;;;;;;;3.47;2.00;;;14.60;99.90;;;;;;5072163;28;20635;-72
2023/09/30 02:50:17;;;;;;;1.73;1.63;;;14.50;99.90;;;;;;5072081;28;20629;-73
2023/09/30 02:52:45;;;;;;;2.60;2.20;;;14.50;99.90;;;;;;5069613;28;20684;-73
2023/09/30 02:55:13;;;;;;;2.73;2.40;;;14.60;99.90;;;;;;5069542;28;20633;-73
2023/09/30 02:57:40;;;;;;;4.13;2.77;;;14.60;99.90;;;;;;5069323;28;20765;-72
2023/09/30 03:00:15;;;;;;;2.60;2.40;;;14.60;99.90;;;;;;5071171;28;20644;-73
2023/09/30 03:02:41;;;;;;;2.30;2.03;;;14.60;99.90;;;;;;5071796;28;20626;-73
2023/09/30 03:05:10;;;;;;;5.47;2.10;;;14.70;99.90;;;;;;5070209;28;20629;-73
2023/09/30 03:07:38;;;;;;;4.47;2.43;;;14.70;99.90;;;;;;5069721;28;20645;-73
2023/09/30 03:10:08;;;;;;;2.87;1.90;;;14.60;99.90;;;;;;5069533;28;20641;-73
2023/09/30 03:12:35;;;;;;;2.70;2.23;;;14.70;99.90;;;;;;5069786;28;20733;-73
2023/09/30 03:15:04;;;;;;;3.10;2.13;;;14.60;99.90;;;;;;5069766;28;20639;-73
2023/09/30 03:17:31;;;;;;;2.60;1.83;;;14.60;99.90;;;;;;5071193;28;22972;-73
2023/09/30 03:19:58;;;;;;;6.00;2.17;;;14.60;99.90;;;;;;5068398;28;21104;-73
2023/09/30 03:22:26;;;;;;;3.10;2.00;;;14.70;99.90;;;;;;5069760;28;20631;-73
2023/09/30 03:24:57;;;;;;;2.57;2.00;;;14.70;99.90;;;;;;5068949;28;20663;-73
2023/09/30 03:27:24;;;;;;;3.10;2.60;;;14.70;99.90;;;;;;5069197;28;20718;-73
2023/09/30 03:29:50;;;;;;;3.70;2.53;;;14.70;99.90;;;;;;5070340;28;20626;-73
2023/09/30 03:32:17;;;;;;;2.50;2.30;;;14.70;99.90;;;;;;5069343;28;20665;-72
2023/09/30 03:34:46;;;;;;;2.50;2.03;;;14.80;99.90;;;;;;5069201;28;20648;-73
2023/09/30 03:37:13;;;;;;;4.67;2.77;;;14.80;99.90;;;;;;5070603;28;20625;-72
2023/09/30 03:39:40;;;;;;;3.60;2.23;;;14.90;99.90;;;;;;5068681;28;20641;-73
2023/09/30 03:42:11;;;;;;;3.00;2.60;;;14.80;99.90;;;;;;5071123;28;20621;-73
2023/09/30 03:44:38;;;;;;;3.50;3.20;;;14.80;99.90;;;;;;5068366;28;20741;-73
2023/09/30 03:47:05;;;;;;;3.97;2.40;;;14.90;99.90;;;;;;5068346;28;20989;-73
2023/09/30 03:49:32;;;;;;;2.70;1.90;;;14.90;99.90;;;;;;5071229;28;20624;-73
2023/09/30 03:52:01;;;;;;;2.80;2.50;;;14.80;99.90;;;;;;5068138;28;20898;-73
2023/09/30 03:54:28;;;;;;;2.40;1.97;;;14.80;99.90;;;;;;5070606;28;20664;-73
2023/09/30 03:56:55;;;;;;;4.47;2.63;;;14.70;99.90;;;;;;5069169;28;20634;-73
2023/09/30 03:59:23;;;;;;;2.30;2.10;;;14.70;99.90;;;;;;5070087;28;20610;-73
2023/09/30 04:01:49;;;;;;;2.20;2.00;;;14.70;99.90;;;;;;5070702;28;21919;-72
2023/09/30 04:04:16;;;;;;;2.40;1.50;;;14.70;99.90;;;;;;5069591;28;20629;-73
2023/09/30 04:06:43;;;;;;;2.10;1.90;;;14.70;99.90;;;;;;5067196;28;20654;-71
2023/09/30 04:09:10;;;;;;;3.00;2.10;;;14.70;99.90;;;;;;5069286;28;21178;-72
2023/09/30 04:11:37;;;;;;;3.93;2.43;;;14.60;99.90;;;;;;5071407;28;21012;-72
2023/09/30 04:14:05;;;;;;;6.40;2.30;;;14.60;99.90;;;;;;5070858;28;20634;-72
2023/09/30 04:16:33;;;;;;;1.73;1.60;;;14.70;99.90;;;;;;5070996;28;20633;-72
2023/09/30 04:19:00;;;;;;;2.37;2.17;;;14.70;99.90;;;;;;5071676;28;20640;-73
2023/09/30 04:21:29;;;;;;;2.10;1.90;;;14.60;99.90;;;;;;5073381;28;20640;-73
2023/09/30 04:23:56;;;;;;;4.50;2.77;;;14.70;99.90;;;;;;5074017;28;20751;-73
2023/09/30 04:26:23;;;;;;;2.00;1.70;;;14.70;99.90;;;;;;5073222;28;21021;-73
2023/09/30 04:28:51;;;;;;;2.53;2.00;;;14.70;99.90;;;;;;5072529;28;20613;-73
2023/09/30 04:31:18;;;;;;;2.40;1.83;;;14.70;99.90;;;;;;5073512;28;22185;-72
2023/09/30 04:33:47;;;;;;;2.43;2.20;;;14.80;99.90;;;;;;5072394;28;20633;-72
2023/09/30 04:36:13;;;;;;;3.27;2.20;;;14.80;99.90;;;;;;5071437;28;20639;-73
2023/09/30 04:38:40;;;;;;;4.77;2.27;;;14.80;99.90;;;;;;5072895;28;20636;-73
2023/09/30 04:41:08;;;;;;;2.60;2.40;;;14.80;99.90;;;;;;5072589;28;21246;-72
2023/09/30 04:43:35;;;;;;;2.80;2.60;;;14.70;99.90;;;;;;5073803;28;20638;-72
2023/09/30 04:46:02;;;;;;;4.30;2.40;;;14.70;99.90;;;;;;5068532;28;21475;-71
2023/09/30 04:48:29;;;;;;;5.30;2.30;;;14.70;99.90;;;;;;5073064;28;20783;-72
2023/09/30 04:50:57;;;;;;;3.50;2.63;;;14.60;99.90;;;;;;5073133;28;20662;-72
2023/09/30 04:53:24;;;;;;;3.23;2.63;;;14.70;99.90;;;;;;5072880;28;20675;-73
2023/09/30 04:55:51;;;;;;;2.23;2.13;;;14.70;99.90;;;;;;5071952;28;21314;-72
2023/09/30 04:58:18;;;;;;;2.80;2.60;;;14.70;99.90;;;;;;5073237;28;20628;-72
2023/09/30 05:00:44;;;;;;;6.93;2.47;;;14.70;99.90;;;;;;5069354;28;20637;-73
2023/09/30 05:03:11;;;;;;;3.77;2.40;;;14.70;99.90;;;;;;5072211;28;21319;-73
2023/09/30 05:05:38;;;;;;;2.53;2.07;;;14.70;99.90;;;;;;5072083;28;20636;-73
2023/09/30 05:08:07;;;;;;;2.20;2.00;;;14.80;99.90;;;;;;5072577;28;21137;-73
2023/09/30 05:10:34;;;;;;;2.77;2.20;;;14.80;99.90;;;;;;5072705;28;21161;-73
2023/09/30 05:13:00;;;;;;;2.40;2.00;;;14.80;99.90;;;;;;5070763;28;20676;-72
2023/09/30 05:15:29;;;;;;;3.20;2.50;;;14.70;99.90;;;;;;5068712;28;21319;-73
2023/09/30 05:17:56;;;;;;;2.77;2.20;;;14.70;99.90;;;;;;5070136;28;22133;-73
2023/09/30 05:20:22;;;;;;;4.03;2.30;;;14.80;99.90;;;;;;5068817;28;20639;-73
2023/09/30 05:22:51;;;;;;;2.60;2.40;;;14.80;99.90;;;;;;5066767;28;20648;-72
2023/09/30 05:25:19;;;;;;;3.40;1.77;;;14.80;99.90;;;;;;5067260;28;20625;-72
2023/09/30 05:27:48;;;;;;;4.03;3.17;;;14.80;99.90;;;;;;5063963;28;22287;-73
2023/09/30 05:30:16;;;;;;;2.33;2.13;;;14.70;99.90;;;;;;5068430;28;20621;-73
2023/09/30 05:32:43;;;;;;;2.73;2.50;;;14.70;99.90;;;;;;5065004;28;20777;-73
2023/09/30 05:35:12;;;;;;;2.73;2.53;;;14.70;99.90;;;;;;5066353;28;20644;-73
2023/09/30 05:37:40;;;;;;;2.40;2.20;;;14.70;99.90;;;;;;5067006;28;20629;-73
2023/09/30 05:40:16;;;;;;;3.00;2.20;;;14.70;99.90;;;;;;5070698;28;20643;-72
2023/09/30 05:42:44;;;;;;;3.07;2.73;;;14.60;99.90;;;;;;5071316;28;20625;-73
2023/09/30 05:45:12;;;;;;;4.33;2.17;;;14.60;99.90;;;;;;5069608;28;20629;-73
2023/09/30 05:47:39;;;;;;;3.40;2.33;;;14.60;99.90;;;;;;5069713;28;20645;-73
2023/09/30 05:50:08;;;;;;;3.17;2.70;;;14.50;99.90;;;;;;5069282;28;20631;-73
2023/09/30 05:52:35;;;;;;;6.27;2.60;;;14.50;99.90;;;;;;5070291;28;21016;-73
2023/09/30 05:55:03;;;;;;;2.40;2.20;;;14.60;99.90;;;;;;5069702;28;20673;-73
2023/09/30 05:57:30;;;;;;;4.20;2.80;;;14.60;99.90;;;;;;5069649;28;20633;-73
2023/09/30 05:59:58;;;;;;;4.77;2.17;;;14.60;99.90;;;;;;5070611;28;20636;-72
2023/09/30 06:02:25;;;;;;;2.53;2.23;;;14.70;99.90;;;;;;5069936;28;20648;-72
2023/09/30 06:04:53;;;;;;;2.57;2.37;;;14.70;99.90;;;;;;5071357;28;22004;-72
2023/09/30 06:07:20;;;;;;;4.60;2.53;;;14.80;99.90;;;;;;5068024;28;20644;-72
2023/09/30 06:09:48;;;;;;;4.63;3.40;;;14.80;99.90;;;;;;5070168;28;20969;-71
2023/09/30 06:12:14;;;;;;;3.70;2.50;;;14.90;99.90;;;;;;5068582;28;20889;-72
2023/09/30 06:14:41;;;;;;;3.17;2.37;;;15.00;99.90;;;;;;5070608;28;20634;-72
2023/09/30 06:17:09;;;;;;;4.37;2.37;;;14.90;99.90;;;;;;5070808;28;20629;-72
2023/09/30 06:19:37;;;;;;;2.27;1.70;;;14.90;99.90;;;;;;5072208;28;20633;-72
2023/09/30 06:22:04;;;;;;;3.43;2.40;;;14.90;99.90;;;;;;5070875;28;20898;-72
2023/09/30 06:24:31;;;;;;;5.67;2.70;;;15.00;99.90;;;;;;5071622;28;21618;-72
2023/09/30 06:26:58;;;;;;;3.20;2.43;;;15.00;99.90;;;;;;5069032;28;20667;-72
2023/09/30 06:29:25;;;;;;;6.13;2.87;;;15.00;99.90;;;;;;5066541;28;21208;-72
2023/09/30 06:31:51;;;;;;;2.33;2.13;;;15.10;99.90;;;;;;5070707;28;20614;-72
2023/09/30 06:34:19;;;;;;;9.00;2.63;;;15.10;99.90;;;;;;5067832;28;20651;-73
2023/09/30 06:36:46;;;;;;;4.00;2.83;;;15.20;99.90;;;;;;5066347;28;20990;-72
2023/09/30 06:39:13;;;;;;;4.67;3.00;;;15.10;99.90;;;;;;5066496;28;21260;-72
2023/09/30 06:41:40;;;;;;;3.13;2.43;;;15.20;99.90;;;;;;5071506;28;20630;-72
2023/09/30 06:44:07;;;;;;;2.60;2.40;;;15.20;99.90;;;;;;5071381;28;20631;-72
2023/09/30 06:46:34;;;;;;;5.10;2.67;;;15.20;99.90;;;;;;5069929;28;20624;-72
2023/09/30 06:49:00;;;;;;;5.83;3.70;;;15.30;99.90;;;;;;5070964;28;20650;-72
2023/09/30 06:51:28;;;;;;;4.20;3.00;;;15.30;99.90;;;;;;5070746;28;20642;-71
2023/09/30 06:53:55;;;;;;;2.73;2.50;;;15.30;99.90;;;;;;5071783;28;21215;-71
2023/09/30 06:56:22;;;;;;;6.73;3.30;;;15.30;99.90;;;;;;5069766;28;20665;-72
2023/09/30 06:58:49;;;;;;;2.90;2.30;;;15.20;99.90;;;;;;5062993;28;20629;-72
2023/09/30 07:01:17;;;;;;;3.77;3.00;;;15.30;99.90;;;;;;5064698;28;20625;-72
2023/09/30 07:03:44;;;;;;;4.50;3.00;;;15.30;99.90;;;;;;5063728;28;20634;-72
2023/09/30 07:06:11;;;;;;;5.73;2.80;;;15.20;99.90;;;;;;5063306;28;20619;-72
2023/09/30 07:08:39;;;;;;;3.80;2.67;;;15.20;99.90;;;;;;5061592;28;21850;-72
2023/09/30 07:11:07;;;;;;;5.17;3.33;;;15.20;99.90;;;;;;5057244;28;20643;-72
2023/09/30 07:13:35;;;;;;;3.83;2.50;;;15.40;99.90;;;;;;5056012;28;20662;-72
2023/09/30 07:16:02;;;;;;;3.50;3.20;;;15.50;99.90;;;;;;5057335;28;20630;-72
2023/09/30 07:18:29;;;;;;;5.10;3.53;;;15.70;99.90;;;;;;5059292;28;21175;-72
2023/09/30 07:20:55;;;;;;;4.80;3.60;;;15.60;99.90;;;;;;5059029;28;20722;-72
2023/09/30 07:23:22;;;;;;;3.80;2.83;;;15.60;99.90;;;;;;5059157;28;20983;-72
2023/09/30 07:25:50;;;;;;;4.83;3.20;;;15.50;99.90;;;;;;5062964;28;20614;-72
2023/09/30 07:28:17;;;;;;;2.93;2.67;;;15.70;99.90;;;;;;5064424;28;20626;-72
2023/09/30 07:30:45;;;;;;;5.00;2.53;;;15.60;99.90;;;;;;5059428;28;21396;-72
2023/09/30 07:33:11;;;;;;;5.43;2.97;;;15.60;99.90;;;;;;5059322;28;20661;-72
2023/09/30 07:35:39;;;;;;;4.10;3.10;;;15.70;99.90;;;;;;5063329;28;20622;-72
2023/09/30 07:38:06;;;;;;;2.60;2.30;;;15.60;99.90;;;;;;5063649;28;20630;-72
2023/09/30 07:40:33;;;;;;;6.53;2.43;;;15.50;99.90;;;;;;5063074;28;20630;-72
2023/09/30 07:43:01;;;;;;;3.73;2.80;;;15.60;99.90;;;;;;5059156;28;21116;-72
2023/09/30 07:45:28;;;;;;;3.40;2.57;;;15.70;99.90;;;;;;5062041;28;20631;-73
2023/09/30 07:47:55;;;;;;;3.00;2.80;;;15.50;99.90;;;;;;5063794;28;20973;-73
2023/09/30 07:50:22;;;;;;;5.93;2.60;;;15.60;99.90;;;;;;5059839;28;20857;-73
2023/09/30 07:52:48;;;;;;;2.87;2.23;;;15.50;99.90;;;;;;5067804;28;20671;-73
2023/09/30 07:55:15;;;;;;;2.70;2.50;;;15.50;99.90;;;;;;5067632;28;21264;-73
2023/09/30 07:57:43;;;;;;;5.93;3.00;;;15.50;99.90;;;;;;5065580;28;20642;-73
2023/09/30 08:00:15;;;;;;;3.40;3.00;;;15.60;99.90;;;;;;5066543;28;20656;-71
2023/09/30 08:02:42;;;;;;;3.90;3.50;;;15.60;99.90;;;;;;5066218;28;20680;-72
2023/09/30 08:05:10;;;;;;;3.70;2.80;;;15.60;99.90;;;;;;5065986;28;20620;-73
2023/09/30 08:07:38;;;;;;;3.10;2.80;;;15.80;99.90;;;;;;5060321;28;20731;-72
2023/09/30 08:10:06;;;;;;;2.80;2.50;;;15.80;99.90;;;;;;5067612;28;21170;-72
2023/09/30 08:12:33;;;;;;;4.40;2.77;;;16.00;99.90;;;;;;5064779;28;20644;-73
2023/09/30 08:15:00;;;;;;;3.03;2.73;;;16.00;99.90;;;;;;5050143;28;20981;-72
2023/09/30 08:17:28;;;;;;;6.40;3.00;;;16.10;99.90;;;;;;5066027;28;20621;-73
2023/09/30 08:19:55;;;;;;;3.60;2.97;;;16.30;99.90;;;;;;5066969;28;20631;-73
2023/09/30 08:22:27;;;;;;;5.73;3.30;;;16.30;99.90;;;;;;5066446;28;20625;-73
2023/09/30 08:24:54;;;;;;;4.87;3.63;;;16.20;99.90;;;;;;5059432;28;20651;-73
2023/09/30 08:27:20;;;;;;;3.43;2.63;;;16.40;99.90;;;;;;5065054;28;21180;-73
2023/09/30 08:29:47;;;;;;;3.10;2.90;;;16.40;99.90;;;;;;5067348;28;20621;-72
2023/09/30 08:32:14;;;;;;;3.47;3.17;;;16.70;99.90;;;;;;5067453;28;20621;-73
2023/09/30 08:34:42;;;;;;;4.57;3.30;;;16.60;99.90;;;;;;5065865;28;20779;-72
2023/09/30 08:37:10;;;;;;;4.37;2.50;;;16.50;99.90;;;;;;5065909;28;20624;-72
2023/09/30 08:39:39;;;;;;;7.50;3.53;;;16.40;99.90;;;;;;5065767;28;20635;-72
2023/09/30 08:42:10;;;;;;;5.00;3.77;;;16.70;99.90;;;;;;5066243;28;21320;-72
2023/09/30 08:44:40;;;;;;;4.37;3.97;;;17.00;99.90;;;;;;5066368;28;21223;-72
2023/09/30 08:47:07;;;;;;;5.57;3.03;;;17.20;99.90;;;;;;5066744;28;20631;-72
2023/09/30 08:49:35;;;;;;;5.53;3.70;;;17.30;99.80;;;;;;5066548;28;20715;-73
2023/09/30 08:52:04;;;;;;;4.73;3.17;;;17.40;99.90;;;;;;5065808;28;20635;-72
2023/09/30 08:54:32;;;;;;;4.40;3.80;;;17.50;99.90;;;;;;5066172;28;20778;-71
2023/09/30 08:57:01;;;;;;;4.70;3.73;;;17.10;99.20;;;;;;5065796;28;20624;-72
2023/09/30 08:59:29;;;;;;;4.10;3.17;;;16.90;99.40;;;;;;5066946;28;20621;-71
2023/09/30 09:01:56;;;;;;;6.83;3.20;;;16.90;99.70;;;;;;5060024;28;20634;-73
2023/09/30 09:04:23;;;;;;;5.00;3.67;;;16.90;99.80;;;;;;5064185;28;20632;-73
2023/09/30 09:06:49;;;;;;;3.60;3.13;;;17.20;99.90;;;;;;5064981;28;20632;-73
2023/09/30 09:09:21;;;;;;;6.43;3.57;;;17.60;99.40;;;;;;5066064;28;20642;-72
2023/09/30 09:11:48;;;;;;;3.63;3.10;;;17.60;99.10;;;;;;5067231;28;20634;-72
2023/09/30 09:14:15;;;;;;;3.57;3.20;;;17.40;98.60;;;;;;5066080;28;20995;-72
2023/09/30 09:16:55;;;;;;;2.60;2.40;;;17.40;98.90;;;;;;5065246;28;20993;-72
2023/09/30 09:19:22;;;;;;;7.57;3.30;;;17.60;98.50;;;;;;5066379;28;20654;-72
2023/09/30 09:21:57;;;;;;;3.87;3.30;;;17.90;98.30;;;;;;5065469;28;20636;-72
2023/09/30 09:24:32;;;;;;;5.10;3.90;;;18.00;97.60;;;;;;5066623;28;20636;-72
2023/09/30 09:27:09;;;;;;;3.80;2.93;;;18.20;97.30;;;;;;5065105;28;20628;-73
2023/09/30 09:29:37;;;;;;;3.03;2.77;;;18.30;97.10;;;;;;5064570;28;20643;-72
2023/09/30 09:32:11;;;;;;;4.43;3.60;;;18.30;96.40;;;;;;5064955;28;20979;-72
2023/09/30 09:34:38;;;;;;;5.70;3.27;;;18.50;96.20;;;;;;5059716;28;20681;-73
2023/09/30 09:37:18;;;;;;;3.60;2.37;;;18.80;96.10;;;;;;5064712;28;20635;-73
2023/09/30 09:39:55;;;;;;;5.83;3.37;;;19.00;96.00;;;;;;5065471;28;20842;-73
2023/09/30 09:42:26;;;;;;;5.73;3.70;;;19.20;95.40;;;;;;5065399;28;21019;-72
2023/09/30 09:44:56;;;;;;;9.00;3.10;;;19.20;94.70;;;;;;5065043;28;20667;-72
2023/09/30 09:47:25;;;;;;;4.20;2.80;;;19.10;94.50;;;;;;5064239;28;20625;-72
2023/09/30 09:49:52;;;;;;;7.03;2.73;;;19.00;94.50;;;;;;5065557;28;20622;-72
2023/09/30 09:52:20;;;;;;;3.33;3.03;;;19.10;94.50;;;;;;5061535;28;20634;-73
2023/09/30 09:54:47;;;;;;;2.67;2.30;;;18.90;94.90;;;;;;5060958;28;20676;-73
2023/09/30 09:57:17;;;;;;;6.17;2.90;;;19.10;94.80;;;;;;5063666;28;20632;-72
2023/09/30 09:59:46;;;;;;;4.87;2.43;;;19.30;94.30;;;;;;5065492;28;20629;-72
2023/09/30 10:02:15;;;;;;;3.43;2.40;;;19.40;94.30;;;;;;5064248;28;20796;-72
2023/09/30 10:04:43;;;;;;;4.90;3.00;;;19.60;94.00;;;;;;5064361;28;21208;-71
2023/09/30 10:07:14;;;;;;;3.10;2.80;;;19.70;94.20;;;;;;5062789;28;20627;-71
2023/09/30 10:09:45;;;;;;;4.90;2.93;;;20.00;94.10;;;;;;5058469;28;20732;-72
2023/09/30 10:12:15;;;;;;;4.60;2.63;;;20.00;93.90;;;;;;5064451;28;20624;-72
2023/09/30 10:14:42;;;;;;;3.67;2.70;;;19.90;93.50;;;;;;5062958;28;20668;-72
2023/09/30 10:17:09;;;;;;;3.13;2.50;;;19.90;92.90;;;;;;5064212;28;20640;-72
2023/09/30 10:19:35;;;;;;;2.60;2.40;;;20.10;92.80;;;;;;5064572;28;20617;-72
2023/09/30 10:22:22;;;;;;;4.37;3.07;;;20.00;92.90;;;;;;5064619;28;20632;-72
2023/09/30 10:24:51;;;;;;;3.20;2.53;;;20.00;93.90;;;;;;5064073;28;20629;-73
2023/09/30 10:27:34;;;;;;;6.30;3.50;;;19.80;93.90;;;;;;5058848;28;20634;-72
2023/09/30 10:30:10;;;;;;;3.67;3.37;;;19.50;94.10;;;;;;5064036;28;20672;-72
2023/09/30 10:33:14;;;;;;;3.33;2.93;;;19.70;93.60;;;;;;5064280;28;20628;-72
2023/09/30 10:35:46;;;;;;;2.90;2.60;;;19.80;94.30;;;;;;5053995;28;20644;-73
2023/09/30 10:38:40;;;;;;;4.57;2.93;;;19.50;93.40;;;;;;5062645;28;21845;-73
2023/09/30 10:41:08;;;;;;;5.03;3.83;;;19.60;94.50;;;;;;5062128;28;21200;-73
2023/09/30 10:43:38;;;;;;;3.63;3.10;;;19.50;94.40;;;;;;5064541;28;20616;-73
2023/09/30 10:46:08;;;;;;;5.30;3.23;;;19.60;93.90;;;;;;5062764;28;20621;-73
2023/09/30 10:48:36;;;;;;;2.80;2.50;;;19.80;93.60;;;;;;5063845;28;20643;-73
2023/09/30 10:51:12;;;;;;;2.90;2.43;;;19.90;93.30;;;;;;5063961;28;20980;-73
2023/09/30 10:53:46;;;;;;;5.80;3.03;;;19.90;93.40;;;;;;5063491;28;20662;-73
2023/09/30 10:56:14;;;;;;;3.83;2.80;;;20.10;93.80;;;;;;5064228;28;20623;-73
2023/09/30 10:58:46;;;;;;;2.90;2.37;;;20.00;92.50;;;;;;5063520;28;20624;-73
2023/09/30 11:01:15;;;;;;;3.33;2.87;;;19.80;93.10;;;;;;5063188;28;20625;-73
2023/09/30 11:03:45;;;;;;;3.67;2.57;;;19.50;92.60;;;;;;5064175;28;21245;-73
2023/09/30 11:06:19;;;;;;;5.30;2.63;;;19.60;93.20;;;;;;5064092;28;20717;-72
2023/09/30 11:08:51;;;;;;;4.90;3.30;;;19.40;92.50;;;;;;5064205;28;20656;-72
2023/09/30 11:11:18;;;;;;;7.67;3.63;;;19.50;93.00;;;;;;5063614;28;21007;-72
2023/09/30 11:13:48;;;;;;;5.30;3.77;;;19.70;92.60;;;;;;5062567;28;20667;-72
2023/09/30 11:16:15;;;;;;;4.27;3.20;;;19.90;91.70;;;;;;5064608;28;20732;-72
2023/09/30 11:18:42;;;;;;;8.30;3.40;;;19.90;91.20;;;;;;5064265;28;20716;-73
2023/09/30 11:21:12;;;;;;;4.40;3.60;;;20.00;91.50;;;;;;5063928;28;20629;-72
2023/09/30 11:23:40;;;;;;;3.10;2.80;;;20.00;91.60;;;;;;5063513;28;20632;-72
2023/09/30 11:26:07;;;;;;;4.90;3.70;;;20.00;91.30;;;;;;5065822;28;21914;-72
2023/09/30 11:28:39;;;;;;;7.43;4.37;;;20.00;92.10;;;;;;5068113;28;20990;-72
2023/09/30 11:31:11;;;;;;;3.57;3.20;;;20.00;92.40;;;;;;5067660;28;21327;-73
2023/09/30 11:33:56;;;;;;;4.40;3.90;;;19.80;92.20;;;;;;5067758;28;20629;-73
2023/09/30 11:36:23;;;;;;;6.03;3.67;;;19.90;91.70;;;;;;5067285;28;20629;-73
2023/09/30 11:38:53;;;;;;;5.17;3.47;;;19.90;92.00;;;;;;5067210;28;20888;-73
2023/09/30 11:41:21;;;;;;;5.03;3.90;;;20.00;91.50;;;;;;5068879;28;20628;-73
2023/09/30 11:44:07;;;;;;;3.00;2.73;;;20.10;91.00;;;;;;5067684;28;20625;-73
2023/09/30 11:46:49;;;;;;;4.93;3.20;;;20.00;91.30;;;;;;5062963;28;20624;-73
2023/09/30 11:49:26;;;;;;;3.67;2.70;;;20.10;91.20;;;;;;5064459;28;21001;-73
2023/09/30 11:51:54;;;;;;;4.27;3.67;;;20.00;91.20;;;;;;5066345;28;20644;-73
2023/09/30 11:54:21;;;;;;;4.20;3.30;;;19.90;91.40;;;;;;5066230;28;21163;-72
2023/09/30 11:56:50;;;;;;;4.70;3.47;;;19.60;90.40;;;;;;5063644;28;21133;-72
2023/09/30 11:59:19;;;;;;;6.23;3.20;;;19.70;91.10;;;;;;5060366;28;21204;-73
2023/09/30 12:01:48;;;;;;;4.87;3.20;;;19.60;91.20;;;;;;5064593;28;20637;-73
2023/09/30 12:04:17;;;;;;;5.20;3.40;;;19.50;90.60;;;;;;5064045;28;20639;-73
2023/09/30 12:06:43;;;;;;;5.00;3.37;;;19.30;91.20;;;;;;5062446;28;20644;-73
2023/09/30 12:09:13;;;;;;;5.47;3.43;;;19.40;90.10;;;;;;5061703;28;20646;-73
2023/09/30 12:11:43;;;;;;;7.43;3.87;;;19.60;91.20;;;;;;5064401;28;20644;-73
2023/09/30 12:14:12;;;;;;;6.33;4.40;;;19.90;91.40;;;;;;5065115;28;21725;-73
2023/09/30 12:16:39;;;;;;;4.87;3.40;;;20.10;91.10;;;;;;5066007;28;20643;-73
2023/09/30 12:19:07;;;;;;;7.03;4.00;;;20.20;89.80;;;;;;5065720;28;20621;-73
2023/09/30 12:21:34;;;;;;;4.97;4.17;;;20.20;89.50;;;;;;5064655;28;20637;-73
2023/09/30 12:24:01;;;;;;;5.57;3.40;;;20.30;89.10;;;;;;5062910;28;21251;-73
2023/09/30 12:26:28;;;;;;;4.13;3.47;;;20.30;86.80;;;;;;5064686;28;20629;-73
2023/09/30 12:28:55;;;;;;;5.40;3.87;;;20.20;89.20;;;;;;5064885;28;20618;-73
2023/09/30 12:31:23;;;;;;;3.80;2.90;;;20.30;89.10;;;;;;5065889;28;20621;-72
2023/09/30 12:33:51;;;;;;;4.20;3.63;;;20.40;88.10;;;;;;5065105;28;20620;-73
2023/09/30 12:36:19;;;;;;;10.30;3.10;;;20.40;87.50;;;;;;5064274;28;20617;-72
2023/09/30 12:38:46;;;;;;;5.20;3.63;;;20.20;89.60;;;;;;5065668;28;20643;-73
2023/09/30 12:41:14;;;;;;;5.83;3.63;;;20.00;89.40;;;;;;5065437;28;20633;-73
2023/09/30 12:43:41;;;;;;;4.20;3.00;;;19.70;87.80;;;;;;5066313;28;21036;-72
2023/09/30 12:46:08;;;;;;;4.27;3.87;;;19.50;87.30;;;;;;5064992;28;20632;-72
2023/09/30 12:48:38;;;;;;;5.10;2.57;;;19.30;88.30;;;;;;5066623;28;20644;-72
2023/09/30 12:51:06;;;;;;;3.50;2.80;;;19.40;90.30;;;;;;5066476;28;20632;-73
2023/09/30 12:53:34;;;;;;;6.23;3.57;;;19.30;87.70;;;;;;5066021;28;20633;-72